Golden Beach, Florida
Current Conditions -  °F | °C
As of 7:53 AM on Friday 31 Oct 2014 (Local Time) from KHWO Reporting Station
Clear Clear  
Wind Chill: 71°   Ceiling: Unl
Heat Index: 71°   Visibility: 10mi
Dew Point: 68°   Wind: 0mph
Humidity: 90%   Direction: NA
Pressure: 29.87"   Gusts: NA
Location:  25.9339°N, 80.1467°W
Report Text: KHWO 311153Z 00000KT 10SM CLR 22/20 A2987 RMK AO2 SLP115 T02170200 10228 20211 53011
Loading
Personal Weather Stations






























Interactive Weather Map
Tropical Storm Tracking
New forecast layout! Learn more

10-Day Weather Forecast

Advertisements
Track Severe Weather on mobile